Time;durP1;ratioP1;P1;durP2;ratioP2;P2;SDS_P1;SDS_P2;PMS_P1;PMS_P2;Temp;Humidity;BMP_temperature;BMP_pressure;BME280_temperature;BME280_humidity;BME280_pressure;Samples;Min_cycle;Max_cycle;Signal;HPM_P1;HPM_P2
2022/10/02 00:00:13;;;;;;;17.13;3.63;;;14.60;99.90;;;;;;5039577;28;20480;-61
2022/10/02 00:02:41;;;;;;;16.60;3.20;;;14.60;99.90;;;;;;5030642;28;20485;-61
2022/10/02 00:05:09;;;;;;;17.50;3.10;;;14.60;99.90;;;;;;5015469;28;20378;-64
2022/10/02 00:07:36;;;;;;;14.32;2.67;;;14.60;99.90;;;;;;5033397;28;20442;-60
2022/10/02 00:10:02;;;;;;;16.05;3.20;;;14.60;99.90;;;;;;5048617;28;20072;-61
2022/10/02 00:12:29;;;;;;;20.38;3.55;;;14.60;99.90;;;;;;5053691;28;20037;-63
2022/10/02 00:14:56;;;;;;;14.68;3.05;;;14.60;99.90;;;;;;5030803;28;20527;-62
2022/10/02 00:17:22;;;;;;;15.55;2.90;;;14.60;99.90;;;;;;5034026;28;20060;-62
2022/10/02 00:19:49;;;;;;;16.38;3.40;;;14.60;99.90;;;;;;5032071;28;20072;-61
2022/10/02 00:22:16;;;;;;;18.10;3.40;;;14.60;99.90;;;;;;5030102;28;20445;-62
2022/10/02 00:24:42;;;;;;;13.75;3.05;;;14.60;99.90;;;;;;5033562;28;20073;-62
2022/10/02 00:27:14;;;;;;;16.85;3.17;;;14.60;99.90;;;;;;5036590;28;20049;-62
2022/10/02 00:29:40;;;;;;;14.65;3.25;;;14.60;99.90;;;;;;5036436;28;20045;-62
2022/10/02 00:32:09;;;;;;;12.48;2.50;;;14.50;99.90;;;;;;5036399;28;20041;-60
2022/10/02 00:34:35;;;;;;;16.38;3.78;;;14.50;99.90;;;;;;5034661;28;20042;-61
2022/10/02 00:37:02;;;;;;;17.77;3.17;;;14.50;99.90;;;;;;5035353;28;20062;-62
2022/10/02 00:39:29;;;;;;;16.73;3.50;;;14.60;99.90;;;;;;5035197;28;20073;-62
2022/10/02 00:41:55;;;;;;;15.48;2.88;;;14.50;99.90;;;;;;5035759;28;20041;-62
2022/10/02 00:44:22;;;;;;;13.98;3.50;;;14.50;99.90;;;;;;5034166;28;20404;-60
2022/10/02 00:46:49;;;;;;;16.35;3.25;;;14.50;99.90;;;;;;5035110;28;20041;-61
2022/10/02 00:49:16;;;;;;;19.90;3.55;;;14.50;99.90;;;;;;5036204;28;20068;-62
2022/10/02 00:51:42;;;;;;;15.63;3.30;;;14.50;99.90;;;;;;5035435;28;20069;-62
2022/10/02 00:54:09;;;;;;;16.52;3.60;;;14.50;99.90;;;;;;5035713;28;20034;-62
2022/10/02 00:56:36;;;;;;;18.17;3.67;;;14.40;99.90;;;;;;5035837;28;20504;-60
2022/10/02 00:59:03;;;;;;;21.42;3.65;;;14.40;99.90;;;;;;5035631;28;20045;-61
2022/10/02 01:01:30;;;;;;;17.75;3.60;;;14.40;99.90;;;;;;5035040;28;20043;-63
2022/10/02 01:03:57;;;;;;;16.02;3.33;;;14.40;99.90;;;;;;5034543;28;20049;-62
2022/10/02 01:06:23;;;;;;;18.17;3.25;;;14.40;99.90;;;;;;5036422;28;20127;-62
2022/10/02 01:08:53;;;;;;;16.80;3.28;;;14.40;99.90;;;;;;5036243;28;20129;-61
2022/10/02 01:11:20;;;;;;;12.93;2.88;;;14.40;99.90;;;;;;5036493;28;20045;-61
2022/10/02 01:13:46;;;;;;;13.60;2.83;;;14.40;99.90;;;;;;5036179;28;20120;-63
2022/10/02 01:16:13;;;;;;;15.77;2.92;;;14.40;99.90;;;;;;5035138;28;20076;-62
2022/10/02 01:18:40;;;;;;;13.52;2.90;;;14.40;99.90;;;;;;5034549;28;20053;-63
2022/10/02 01:21:06;;;;;;;14.45;3.05;;;14.40;99.90;;;;;;5035241;28;20049;-64
2022/10/02 01:23:33;;;;;;;19.88;3.83;;;14.40;99.90;;;;;;5033855;28;20355;-63
2022/10/02 01:26:00;;;;;;;15.80;3.03;;;14.40;99.90;;;;;;5036197;28;20397;-65
2022/10/02 01:28:27;;;;;;;16.67;3.30;;;14.40;99.90;;;;;;5034366;28;20053;-63
2022/10/02 01:30:54;;;;;;;14.07;3.15;;;14.50;99.90;;;;;;5036187;28;20056;-63
2022/10/02 01:33:21;;;;;;;12.93;3.33;;;14.40;99.90;;;;;;5036325;28;20045;-63
2022/10/02 01:35:48;;;;;;;12.35;2.88;;;14.40;99.90;;;;;;5035303;28;20053;-62
2022/10/02 01:38:14;;;;;;;17.45;2.83;;;14.40;99.90;;;;;;5036044;28;20372;-62
2022/10/02 01:40:41;;;;;;;15.00;2.90;;;14.40;99.90;;;;;;5032929;28;20041;-65
2022/10/02 01:43:08;;;;;;;14.70;2.80;;;14.40;99.90;;;;;;5035740;28;20037;-61
2022/10/02 01:45:34;;;;;;;13.05;3.47;;;14.30;99.90;;;;;;5033182;28;20041;-60
2022/10/02 01:48:01;;;;;;;13.02;3.03;;;14.40;99.90;;;;;;5035710;28;20041;-61
2022/10/02 01:50:28;;;;;;;12.73;3.03;;;14.40;99.90;;;;;;5033515;28;20073;-62
2022/10/02 01:52:55;;;;;;;11.45;2.70;;;14.40;99.90;;;;;;5033446;28;20048;-61
2022/10/02 01:55:21;;;;;;;12.02;3.00;;;14.40;99.90;;;;;;5035420;28;20041;-62
2022/10/02 01:57:48;;;;;;;15.90;2.90;;;14.40;99.90;;;;;;5034362;28;20481;-61
2022/10/02 02:00:16;;;;;;;15.55;3.58;;;14.40;99.90;;;;;;5033947;28;20408;-62
2022/10/02 02:02:43;;;;;;;9.77;2.20;;;14.40;99.90;;;;;;5035024;28;20045;-60
2022/10/02 02:05:09;;;;;;;12.40;2.50;;;14.40;99.90;;;;;;5034168;28;20045;-61
2022/10/02 02:07:36;;;;;;;17.27;3.10;;;14.40;99.90;;;;;;5035660;28;20132;-61
2022/10/02 02:10:03;;;;;;;15.50;2.75;;;14.30;99.90;;;;;;5035366;28;20485;-62
2022/10/02 02:12:29;;;;;;;15.13;3.17;;;14.30;99.90;;;;;;5033423;28;20082;-62
2022/10/02 02:14:56;;;;;;;14.38;2.90;;;14.30;99.90;;;;;;5035069;28;20457;-63
2022/10/02 02:17:23;;;;;;;13.75;2.47;;;14.40;99.90;;;;;;5034898;28;20057;-61
2022/10/02 02:19:50;;;;;;;12.95;2.92;;;14.40;99.90;;;;;;5034751;28;20464;-61
2022/10/02 02:22:17;;;;;;;12.35;3.10;;;14.40;99.90;;;;;;5035086;28;20077;-60
2022/10/02 02:24:44;;;;;;;14.45;2.88;;;14.40;99.90;;;;;;5017333;28;20468;-61
2022/10/02 02:27:10;;;;;;;13.68;3.05;;;14.40;99.90;;;;;;5035206;28;20125;-61
2022/10/02 02:29:37;;;;;;;12.98;2.47;;;14.30;99.90;;;;;;5034934;28;20558;-62
2022/10/02 02:32:04;;;;;;;11.02;2.40;;;14.30;99.90;;;;;;5034078;28;20396;-61
2022/10/02 02:34:30;;;;;;;9.25;2.25;;;14.30;99.90;;;;;;5016285;28;20053;-62
2022/10/02 02:36:57;;;;;;;11.10;2.67;;;14.30;99.90;;;;;;5034883;28;20453;-62
2022/10/02 02:39:24;;;;;;;8.38;2.30;;;14.30;99.90;;;;;;5034352;28;20037;-62
2022/10/02 02:41:51;;;;;;;11.85;2.05;;;14.40;99.90;;;;;;5034693;28;20481;-61
2022/10/02 02:44:17;;;;;;;12.38;2.60;;;14.30;99.90;;;;;;5034593;28;20045;-61
2022/10/02 02:47:03;;;;;;;13.32;2.60;;;14.30;99.90;;;;;;5033898;28;20099;-62
2022/10/02 02:49:29;;;;;;;15.57;2.72;;;14.30;99.90;;;;;;5017072;28;20053;-62
2022/10/02 02:51:56;;;;;;;13.23;2.40;;;14.30;99.90;;;;;;5016704;28;20045;-62
2022/10/02 02:54:23;;;;;;;9.68;2.05;;;14.30;99.90;;;;;;5033481;28;20061;-60
2022/10/02 02:56:49;;;;;;;14.48;2.67;;;14.30;99.90;;;;;;5034568;28;20116;-60
2022/10/02 02:59:16;;;;;;;16.95;3.22;;;14.30;99.90;;;;;;5034401;28;20132;-61
2022/10/02 03:01:43;;;;;;;14.85;2.63;;;14.30;99.90;;;;;;5015892;28;20099;-62
2022/10/02 03:04:10;;;;;;;10.02;2.08;;;14.30;99.90;;;;;;5033575;28;20053;-61
2022/10/02 03:06:36;;;;;;;10.45;2.65;;;14.30;99.90;;;;;;5033912;28;20081;-61
2022/10/02 03:09:04;;;;;;;11.10;2.30;;;14.30;99.90;;;;;;5034505;28;20124;-62
2022/10/02 03:11:30;;;;;;;12.73;2.53;;;14.30;99.90;;;;;;5034977;28;20046;-61
2022/10/02 03:13:57;;;;;;;13.25;2.47;;;14.30;99.90;;;;;;5034534;28;20485;-61
2022/10/02 03:16:24;;;;;;;12.18;2.53;;;14.20;99.90;;;;;;5033973;28;20072;-61
2022/10/02 03:18:51;;;;;;;9.52;2.45;;;14.20;99.90;;;;;;5033593;28;20095;-61
2022/10/02 03:21:17;;;;;;;15.57;2.78;;;14.20;99.90;;;;;;5034390;28;20038;-62
2022/10/02 03:23:44;;;;;;;10.32;2.30;;;14.20;99.90;;;;;;5033793;28;20052;-61
2022/10/02 03:26:11;;;;;;;11.25;2.42;;;14.20;99.90;;;;;;5034565;28;20415;-61
2022/10/02 03:28:38;;;;;;;14.00;2.85;;;14.20;99.90;;;;;;5034382;28;20065;-62
2022/10/02 03:31:22;;;;;;;11.23;2.53;;;14.20;99.90;;;;;;5032513;28;20041;-62
2022/10/02 03:33:49;;;;;;;10.38;1.90;;;14.20;99.90;;;;;;5033029;28;20033;-61
2022/10/02 03:36:20;;;;;;;12.80;2.70;;;14.20;99.90;;;;;;5034714;28;20370;-62
2022/10/02 03:38:46;;;;;;;11.82;3.03;;;14.20;99.90;;;;;;5048470;28;20045;-61
2022/10/02 03:41:26;;;;;;;13.85;3.00;;;14.20;99.90;;;;;;5033689;28;20050;-61
2022/10/02 03:43:53;;;;;;;12.32;2.72;;;14.20;99.90;;;;;;5028573;28;20488;-61
2022/10/02 03:46:19;;;;;;;14.25;2.65;;;14.20;99.90;;;;;;5032108;28;20041;-63
2022/10/02 03:48:46;;;;;;;12.77;2.83;;;14.20;99.90;;;;;;5033631;28;20053;-60
2022/10/02 03:51:13;;;;;;;12.70;2.40;;;14.20;99.90;;;;;;5032586;28;20072;-61
2022/10/02 03:53:41;;;;;;;8.20;1.95;;;14.20;99.90;;;;;;5033905;28;20043;-61
2022/10/02 03:56:07;;;;;;;12.65;2.40;;;14.20;99.90;;;;;;5033520;28;20491;-62
2022/10/02 03:58:34;;;;;;;10.90;2.70;;;14.20;99.90;;;;;;5031919;28;20157;-61
2022/10/02 04:01:01;;;;;;;13.18;2.72;;;14.20;99.90;;;;;;5032462;28;20042;-60
2022/10/02 04:03:27;;;;;;;10.32;2.50;;;14.20;99.90;;;;;;5031676;28;20121;-61
2022/10/02 04:05:54;;;;;;;11.43;2.75;;;14.20;99.90;;;;;;5032899;28;20047;-63
2022/10/02 04:08:21;;;;;;;12.55;2.70;;;14.20;99.90;;;;;;5033511;28;20399;-62
2022/10/02 04:10:48;;;;;;;11.43;2.30;;;14.10;99.90;;;;;;5031778;28;20128;-64
2022/10/02 04:13:14;;;;;;;12.32;2.70;;;14.20;99.90;;;;;;5035257;28;20041;-61
2022/10/02 04:15:41;;;;;;;11.85;2.58;;;14.10;99.90;;;;;;5029969;28;20044;-62
2022/10/02 04:18:08;;;;;;;10.15;2.30;;;14.10;99.90;;;;;;5031539;28;20132;-63
2022/10/02 04:20:35;;;;;;;13.93;2.65;;;14.10;99.90;;;;;;5032320;28;20500;-62
2022/10/02 04:23:01;;;;;;;12.93;2.33;;;14.20;99.90;;;;;;5032191;28;20124;-61
2022/10/02 04:25:28;;;;;;;12.05;2.45;;;14.10;99.90;;;;;;5014201;28;20393;-63
2022/10/02 04:27:55;;;;;;;11.82;2.40;;;14.20;99.90;;;;;;5015808;28;20132;-64
2022/10/02 04:30:22;;;;;;;8.70;2.00;;;14.10;99.90;;;;;;5033130;28;20037;-64
2022/10/02 04:32:49;;;;;;;10.20;2.50;;;14.20;99.90;;;;;;5033114;28;20042;-62
2022/10/02 04:35:15;;;;;;;13.75;2.63;;;14.20;99.90;;;;;;5032872;28;20077;-63
2022/10/02 04:37:42;;;;;;;11.18;2.33;;;14.20;99.90;;;;;;5032648;28;20463;-63
2022/10/02 04:40:09;;;;;;;12.65;2.60;;;14.10;99.90;;;;;;5032024;28;20065;-63
2022/10/02 04:42:35;;;;;;;11.65;2.55;;;14.20;99.90;;;;;;5031825;28;20056;-63
2022/10/02 04:45:02;;;;;;;15.10;2.90;;;14.20;99.90;;;;;;5031723;28;20084;-63
2022/10/02 04:47:29;;;;;;;9.50;1.92;;;14.10;99.90;;;;;;5031855;28;20128;-62
2022/10/02 04:49:56;;;;;;;10.02;2.22;;;14.20;99.90;;;;;;5031837;28;20606;-62
2022/10/02 04:52:22;;;;;;;8.63;2.03;;;14.10;99.90;;;;;;5032080;28;20077;-62
2022/10/02 04:54:49;;;;;;;9.88;2.58;;;14.10;99.90;;;;;;5033125;28;20046;-61
2022/10/02 04:57:16;;;;;;;11.85;1.92;;;14.10;99.90;;;;;;5032989;28;20499;-61
2022/10/02 04:59:42;;;;;;;12.55;2.70;;;14.20;99.90;;;;;;5033602;28;20133;-63
2022/10/02 05:02:09;;;;;;;11.32;2.05;;;14.10;99.90;;;;;;5033147;28;20374;-61
2022/10/02 05:04:36;;;;;;;8.02;1.88;;;14.10;99.90;;;;;;5033304;28;20045;-63
2022/10/02 05:07:03;;;;;;;11.00;2.30;;;14.10;99.90;;;;;;5033140;28;20111;-62
2022/10/02 05:09:29;;;;;;;10.65;2.63;;;14.20;99.90;;;;;;5032716;28;20041;-63
2022/10/02 05:11:56;;;;;;;10.45;1.95;;;14.10;99.90;;;;;;5035858;28;20053;-62
2022/10/02 05:14:23;;;;;;;10.55;2.20;;;14.10;99.90;;;;;;5036375;28;20488;-61
2022/10/02 05:16:50;;;;;;;12.18;2.00;;;14.10;99.90;;;;;;5036870;28;20076;-62
2022/10/02 05:19:16;;;;;;;9.55;2.15;;;14.10;99.90;;;;;;5036330;28;20112;-63
2022/10/02 05:21:43;;;;;;;11.15;2.00;;;14.20;99.90;;;;;;5036267;28;20386;-62
2022/10/02 05:24:10;;;;;;;11.23;2.50;;;14.10;99.90;;;;;;5036211;28;20079;-63
2022/10/02 05:26:37;;;;;;;9.32;2.10;;;14.10;99.90;;;;;;5036464;28;20124;-62
2022/10/02 05:29:04;;;;;;;9.90;2.25;;;14.10;99.90;;;;;;5036036;28;20099;-61
2022/10/02 05:31:31;;;;;;;9.82;2.15;;;14.10;99.90;;;;;;5036648;28;20041;-63
2022/10/02 05:33:57;;;;;;;10.85;2.47;;;14.10;99.90;;;;;;5035875;28;20042;-63
2022/10/02 05:36:24;;;;;;;13.50;2.60;;;14.10;99.90;;;;;;5035379;28;20431;-61
2022/10/02 05:38:51;;;;;;;11.23;2.90;;;14.10;99.90;;;;;;5035719;28;20532;-61
2022/10/02 05:41:18;;;;;;;12.95;2.90;;;14.10;99.90;;;;;;5035768;28;20503;-61
2022/10/02 05:43:44;;;;;;;11.02;2.67;;;14.10;99.90;;;;;;5036136;28;20041;-62
2022/10/02 05:46:11;;;;;;;17.17;3.20;;;14.10;99.90;;;;;;5036057;28;20125;-63
2022/10/02 05:48:38;;;;;;;10.55;2.58;;;14.10;99.90;;;;;;5036088;28;20436;-62
2022/10/02 05:51:05;;;;;;;10.48;2.60;;;14.10;99.90;;;;;;5036248;28;20128;-62
2022/10/02 05:53:31;;;;;;;8.50;2.33;;;14.10;99.90;;;;;;5035678;28;20088;-64
2022/10/02 05:55:58;;;;;;;10.85;2.42;;;14.10;99.90;;;;;;5036221;28;20069;-63
2022/10/02 05:58:25;;;;;;;10.63;2.40;;;14.10;99.90;;;;;;5035770;28;20129;-63
2022/10/02 06:00:51;;;;;;;10.82;2.58;;;14.10;99.90;;;;;;5036177;28;20038;-62
2022/10/02 06:03:18;;;;;;;13.52;2.20;;;14.10;99.90;;;;;;5035410;28;20052;-63
2022/10/02 06:05:45;;;;;;;12.15;2.30;;;14.10;99.90;;;;;;5036022;28;20448;-61
2022/10/02 06:08:11;;;;;;;13.32;2.50;;;14.10;99.90;;;;;;5035388;28;20041;-64
2022/10/02 06:10:38;;;;;;;9.63;2.08;;;14.10;99.90;;;;;;5035476;28;20053;-63
2022/10/02 06:13:05;;;;;;;10.93;2.20;;;14.10;99.90;;;;;;5017398;28;20144;-65
2022/10/02 06:15:32;;;;;;;11.48;2.35;;;14.10;99.90;;;;;;5034991;28;20033;-62
2022/10/02 06:17:59;;;;;;;14.07;2.53;;;14.10;99.90;;;;;;5034906;28;20061;-64
2022/10/02 06:20:26;;;;;;;11.30;2.70;;;14.10;99.90;;;;;;5035363;28;20125;-63
2022/10/02 06:22:52;;;;;;;11.25;2.40;;;14.00;99.90;;;;;;5035416;28;20547;-63
2022/10/02 06:25:19;;;;;;;9.00;2.13;;;14.10;99.90;;;;;;5017523;28;20050;-62
2022/10/02 06:27:46;;;;;;;8.75;2.22;;;14.00;99.90;;;;;;5035539;28;20069;-63
2022/10/02 06:30:13;;;;;;;16.73;2.55;;;14.00;99.90;;;;;;5034958;28;20050;-63
2022/10/02 06:32:39;;;;;;;14.02;3.42;;;14.00;99.90;;;;;;5035014;28;20073;-62
2022/10/02 06:35:06;;;;;;;12.02;2.22;;;14.10;99.90;;;;;;5035188;28;20519;-62
2022/10/02 06:37:33;;;;;;;13.88;2.83;;;14.00;99.90;;;;;;5034724;28;20117;-62
2022/10/02 06:39:59;;;;;;;14.38;2.65;;;14.00;99.90;;;;;;5035487;28;20455;-64
2022/10/02 06:42:26;;;;;;;13.85;2.70;;;14.00;99.90;;;;;;5034832;28;20038;-64
2022/10/02 06:44:53;;;;;;;11.60;2.50;;;14.00;99.90;;;;;;5034695;28;20484;-64
2022/10/02 06:47:21;;;;;;;12.27;2.55;;;14.00;99.90;;;;;;5034931;28;20103;-61
2022/10/02 06:49:47;;;;;;;9.73;2.20;;;14.10;99.90;;;;;;5034741;28;20120;-63
2022/10/02 06:52:14;;;;;;;14.63;2.40;;;14.10;99.90;;;;;;5035086;28;20373;-61
2022/10/02 06:54:41;;;;;;;13.35;2.75;;;14.10;99.90;;;;;;5034475;28;20068;-63
2022/10/02 06:57:07;;;;;;;13.82;2.97;;;14.10;99.90;;;;;;5034306;28;20084;-62
2022/10/02 06:59:34;;;;;;;13.00;2.88;;;14.10;99.90;;;;;;5034889;28;20038;-63
2022/10/02 07:02:01;;;;;;;13.10;2.40;;;14.10;99.90;;;;;;5034578;28;20037;-60
2022/10/02 07:04:28;;;;;;;11.63;2.75;;;14.10;99.90;;;;;;5034508;28;20053;-61
2022/10/02 07:06:54;;;;;;;12.52;2.20;;;14.10;99.90;;;;;;5034892;28;20042;-62
2022/10/02 07:09:21;;;;;;;11.07;2.65;;;14.10;99.90;;;;;;5034346;28;20065;-64
2022/10/02 07:11:48;;;;;;;11.43;2.88;;;14.10;99.90;;;;;;5034790;28;20107;-62
2022/10/02 07:14:14;;;;;;;17.20;2.70;;;14.10;99.90;;;;;;5034074;28;20116;-60
2022/10/02 07:16:41;;;;;;;13.20;2.80;;;14.10;99.90;;;;;;5034450;28;20113;-66
2022/10/02 07:19:08;;;;;;;10.70;2.38;;;14.10;99.90;;;;;;5034021;28;20103;-63
2022/10/02 07:21:38;;;;;;;18.08;3.75;;;14.10;99.90;;;;;;5034115;28;20081;-62
2022/10/02 07:24:05;;;;;;;12.95;2.33;;;14.10;99.90;;;;;;5033734;28;20095;-64
2022/10/02 07:26:32;;;;;;;12.38;2.65;;;14.20;99.90;;;;;;5033919;28;20041;-62
2022/10/02 07:28:59;;;;;;;13.13;2.65;;;14.20;99.90;;;;;;5033821;28;20065;-62
2022/10/02 07:31:26;;;;;;;17.20;2.85;;;14.20;99.90;;;;;;5034239;28;20127;-62
2022/10/02 07:33:53;;;;;;;13.10;2.55;;;14.20;99.90;;;;;;5015689;28;20041;-63
2022/10/02 07:36:19;;;;;;;13.40;3.30;;;14.20;99.90;;;;;;5034156;28;20200;-63
2022/10/02 07:38:46;;;;;;;13.05;2.53;;;14.20;99.90;;;;;;5034328;28;20065;-62
2022/10/02 07:41:13;;;;;;;15.77;3.10;;;14.20;99.90;;;;;;5034332;28;20088;-63
2022/10/02 07:43:40;;;;;;;11.25;2.55;;;14.20;99.90;;;;;;5033505;28;20515;-64
2022/10/02 07:46:08;;;;;;;11.18;2.92;;;14.20;99.90;;;;;;5034011;28;20068;-63
2022/10/02 07:48:35;;;;;;;11.77;2.70;;;14.30;99.90;;;;;;5033668;28;20042;-63
2022/10/02 07:51:04;;;;;;;10.55;2.65;;;14.30;99.90;;;;;;5033566;28;20370;-64
2022/10/02 07:53:31;;;;;;;10.05;2.25;;;14.30;99.90;;;;;;5033726;28;20853;-63
2022/10/02 07:55:58;;;;;;;12.10;2.80;;;14.30;99.90;;;;;;5015894;28;20041;-63
2022/10/02 07:58:25;;;;;;;10.48;2.63;;;14.30;99.90;;;;;;5016340;28;20053;-62
2022/10/02 08:00:52;;;;;;;13.15;2.92;;;14.30;99.90;;;;;;5033829;28;20069;-62
2022/10/02 08:03:19;;;;;;;8.02;2.35;;;14.30;99.90;;;;;;5033436;28;20099;-64
2022/10/02 08:05:46;;;;;;;12.95;2.60;;;14.30;99.90;;;;;;5033932;28;20045;-63
2022/10/02 08:08:12;;;;;;;14.82;3.30;;;14.30;99.90;;;;;;5033559;28;20116;-62
2022/10/02 08:10:39;;;;;;;12.32;2.63;;;14.30;99.90;;;;;;5033821;28;20439;-62
2022/10/02 08:13:06;;;;;;;11.40;2.88;;;14.40;99.90;;;;;;5033503;28;20120;-63
2022/10/02 08:15:33;;;;;;;14.10;2.42;;;14.40;99.90;;;;;;5033174;28;20069;-65
2022/10/02 08:18:00;;;;;;;13.27;2.97;;;14.40;99.90;;;;;;5033106;28;20053;-63
2022/10/02 08:20:47;;;;;;;11.10;2.55;;;14.40;99.90;;;;;;5018941;28;20540;-63
2022/10/02 08:23:14;;;;;;;13.85;2.92;;;14.40;99.90;;;;;;5033057;28;20033;-63
2022/10/02 08:25:40;;;;;;;12.07;3.17;;;14.40;99.90;;;;;;5015740;28;20467;-62
2022/10/02 08:28:07;;;;;;;12.18;2.80;;;14.40;99.90;;;;;;5033640;28;20087;-63
2022/10/02 08:30:34;;;;;;;12.07;3.10;;;14.40;99.90;;;;;;5033262;28;20037;-63
2022/10/02 08:33:01;;;;;;;10.73;2.85;;;14.40;99.90;;;;;;5033746;28;20500;-61
2022/10/02 08:35:27;;;;;;;11.18;2.85;;;14.40;99.90;;;;;;5015228;28;20037;-63
2022/10/02 08:37:54;;;;;;;14.52;2.67;;;14.40;99.90;;;;;;5033057;28;20077;-63
2022/10/02 08:40:21;;;;;;;14.13;3.33;;;14.50;99.90;;;;;;5033098;28;20037;-62
2022/10/02 08:42:48;;;;;;;12.70;2.88;;;14.50;99.90;;;;;;5033438;28;20477;-65
2022/10/02 08:45:14;;;;;;;11.77;2.60;;;14.50;99.90;;;;;;5033811;28;20132;-62
2022/10/02 08:47:41;;;;;;;11.73;2.80;;;14.50;99.90;;;;;;5037019;28;20065;-63
2022/10/02 08:50:08;;;;;;;15.18;2.50;;;14.50;99.90;;;;;;5036956;28;20499;-63
2022/10/02 08:52:34;;;;;;;15.88;3.05;;;14.50;99.90;;;;;;5037023;28;20099;-63
2022/10/02 08:55:01;;;;;;;14.77;3.40;;;14.50;99.90;;;;;;5036680;28;20064;-63
2022/10/02 08:57:28;;;;;;;11.75;2.90;;;14.60;99.90;;;;;;5036743;28;20084;-63
2022/10/02 08:59:55;;;;;;;15.02;2.90;;;14.60;99.90;;;;;;5037312;28;20037;-61
2022/10/02 09:02:26;;;;;;;9.55;2.92;;;14.60;99.90;;;;;;5036548;28;20041;-61
2022/10/02 09:04:57;;;;;;;9.90;2.67;;;14.70;99.90;;;;;;5036840;28;20041;-61
2022/10/02 09:07:24;;;;;;;9.30;2.63;;;14.70;99.90;;;;;;5036474;28;20144;-63
2022/10/02 09:09:53;;;;;;;10.50;2.97;;;14.80;99.90;;;;;;5037061;28;20164;-62
2022/10/02 09:12:20;;;;;;;12.95;3.03;;;14.90;99.90;;;;;;5036426;28;20045;-64
2022/10/02 09:14:47;;;;;;;13.73;2.80;;;14.90;99.90;;;;;;5036055;28;20125;-63
2022/10/02 09:17:14;;;;;;;10.70;2.80;;;14.90;99.90;;;;;;5036150;28;20041;-64
2022/10/02 09:19:40;;;;;;;15.23;3.30;;;15.00;99.90;;;;;;5035959;28;20531;-62
2022/10/02 09:22:07;;;;;;;10.13;2.63;;;15.10;99.90;;;;;;5036330;28;20048;-62
2022/10/02 09:24:34;;;;;;;17.88;3.10;;;15.10;99.90;;;;;;5036607;28;20065;-61
2022/10/02 09:27:00;;;;;;;11.38;2.97;;;15.10;99.90;;;;;;5036280;28;20128;-61
2022/10/02 09:29:28;;;;;;;11.13;2.90;;;15.20;99.90;;;;;;5036127;28;20041;-64
2022/10/02 09:31:55;;;;;;;12.13;3.05;;;15.20;99.90;;;;;;5035882;28;20045;-63
2022/10/02 09:34:21;;;;;;;13.35;3.13;;;15.30;99.90;;;;;;5035774;28;20388;-63
2022/10/02 09:36:48;;;;;;;15.38;3.75;;;15.30;99.90;;;;;;5035998;28;20061;-62
2022/10/02 09:39:15;;;;;;;11.43;2.83;;;15.30;99.90;;;;;;5035907;28;20069;-63
2022/10/02 09:41:42;;;;;;;13.90;3.08;;;15.40;99.90;;;;;;5035938;28;20072;-63
2022/10/02 09:44:09;;;;;;;16.33;3.00;;;15.40;99.90;;;;;;5036056;28;20037;-64
2022/10/02 09:46:37;;;;;;;13.50;3.65;;;15.50;99.90;;;;;;5035597;28;20573;-62
2022/10/02 09:49:07;;;;;;;14.38;3.83;;;15.50;99.90;;;;;;5018022;28;20095;-61
2022/10/02 09:51:38;;;;;;;12.02;3.15;;;15.60;99.90;;;;;;5018381;28;20506;-62
2022/10/02 09:54:07;;;;;;;13.55;3.28;;;15.60;99.90;;;;;;5035695;28;20088;-63
2022/10/02 09:56:34;;;;;;;14.55;3.15;;;15.60;99.90;;;;;;5034969;28;20048;-62
2022/10/02 09:59:01;;;;;;;19.27;3.17;;;15.60;99.90;;;;;;5036019;28;20038;-63
2022/10/02 10:01:27;;;;;;;15.15;3.33;;;15.60;99.90;;;;;;5035558;28;20066;-63
2022/10/02 10:03:54;;;;;;;14.52;2.58;;;15.70;99.90;;;;;;5035489;28;20049;-61
2022/10/02 10:06:21;;;;;;;15.45;3.60;;;15.60;99.90;;;;;;5036004;28;20041;-61
2022/10/02 10:08:48;;;;;;;11.05;2.72;;;15.70;99.90;;;;;;5035916;28;20088;-64
2022/10/02 10:11:15;;;;;;;10.90;2.95;;;15.70;99.90;;;;;;5035348;28;20051;-63
2022/10/02 10:13:41;;;;;;;10.85;2.92;;;15.70;99.90;;;;;;5035030;28;20583;-62
2022/10/02 10:16:10;;;;;;;11.85;2.65;;;15.70;99.90;;;;;;5035309;28;20133;-61
2022/10/02 10:18:38;;;;;;;15.57;3.58;;;15.80;99.90;;;;;;5034993;28;20060;-62
2022/10/02 10:21:05;;;;;;;13.55;2.60;;;15.70;99.90;;;;;;5035321;28;20095;-64
2022/10/02 10:23:34;;;;;;;9.80;2.30;;;15.70;99.90;;;;;;5035094;28;20135;-63
2022/10/02 10:26:01;;;;;;;13.00;2.97;;;15.70;99.90;;;;;;5035197;28;20045;-63
2022/10/02 10:28:31;;;;;;;13.35;2.90;;;15.70;99.90;;;;;;5035021;28;20073;-63
2022/10/02 10:30:58;;;;;;;14.05;3.15;;;15.70;99.90;;;;;;5035463;28;20045;-61
2022/10/02 10:33:24;;;;;;;11.95;2.67;;;15.70;99.90;;;;;;5035008;28;20049;-60
2022/10/02 10:35:52;;;;;;;13.75;2.88;;;15.70;99.90;;;;;;5035397;28;20426;-61
2022/10/02 10:38:31;;;;;;;10.63;2.90;;;15.70;99.90;;;;;;5034817;28;20056;-62
2022/10/02 10:40:59;;;;;;;10.82;2.40;;;15.80;99.90;;;;;;5034635;28;20073;-62
2022/10/02 10:43:26;;;;;;;14.10;3.15;;;15.80;99.90;;;;;;5035253;28;20125;-63
2022/10/02 10:45:52;;;;;;;12.10;2.50;;;15.80;99.90;;;;;;5034697;28;20076;-64
2022/10/02 10:48:19;;;;;;;12.15;2.63;;;15.80;99.90;;;;;;5034472;28;20045;-61
2022/10/02 10:50:46;;;;;;;12.05;3.38;;;15.90;99.90;;;;;;5034503;28;20076;-61
2022/10/02 10:53:13;;;;;;;14.35;2.67;;;16.00;99.90;;;;;;5016821;28;20456;-63
2022/10/02 10:55:42;;;;;;;10.90;2.25;;;16.00;99.90;;;;;;5034591;28;20132;-61
2022/10/02 10:58:09;;;;;;;9.32;2.28;;;16.10;99.90;;;;;;5034465;28;20065;-65
2022/10/02 11:00:36;;;;;;;8.57;2.50;;;16.10;99.90;;;;;;5034859;28;20038;-61
2022/10/02 11:03:03;;;;;;;10.65;2.28;;;16.20;99.90;;;;;;5034377;28;20493;-63
2022/10/02 11:05:30;;;;;;;17.08;2.88;;;16.20;99.90;;;;;;5034260;28;20043;-63
2022/10/02 11:07:56;;;;;;;14.35;3.17;;;16.20;99.90;;;;;;5033750;28;20073;-60
2022/10/02 11:10:23;;;;;;;10.25;2.47;;;16.30;99.90;;;;;;5034206;28;20468;-63
2022/10/02 11:12:50;;;;;;;10.90;2.72;;;16.30;99.90;;;;;;5034255;28;20052;-63
2022/10/02 11:15:17;;;;;;;12.02;3.13;;;16.40;99.90;;;;;;5015993;28;20412;-60
2022/10/02 11:17:46;;;;;;;12.55;3.33;;;16.40;99.90;;;;;;5034614;28;20061;-65
2022/10/02 11:20:13;;;;;;;11.60;2.72;;;16.40;99.90;;;;;;5034112;28;20504;-63
2022/10/02 11:22:39;;;;;;;11.73;2.65;;;16.30;99.90;;;;;;5034533;28;20092;-62
2022/10/02 11:25:08;;;;;;;15.23;3.22;;;16.30;99.90;;;;;;5034286;28;20037;-61
2022/10/02 11:27:38;;;;;;;13.35;2.97;;;16.20;99.90;;;;;;5016854;28;20049;-63
2022/10/02 11:30:05;;;;;;;10.05;2.85;;;16.20;99.90;;;;;;5016950;28;20381;-62
2022/10/02 11:32:32;;;;;;;11.77;2.80;;;16.20;99.90;;;;;;5034219;28;20041;-64
2022/10/02 11:34:59;;;;;;;11.70;2.53;;;16.20;99.90;;;;;;5033599;28;20061;-63
2022/10/02 11:37:26;;;;;;;13.93;2.72;;;16.30;99.90;;;;;;5033772;28;20045;-65
2022/10/02 11:39:52;;;;;;;12.05;2.70;;;16.30;99.90;;;;;;5033836;28;20037;-63
2022/10/02 11:42:19;;;;;;;13.73;2.72;;;16.30;99.90;;;;;;5016803;28;20095;-62
2022/10/02 11:44:46;;;;;;;10.35;2.50;;;16.30;99.90;;;;;;5033625;28;20038;-63
2022/10/02 11:47:13;;;;;;;12.80;2.65;;;16.30;99.30;;;;;;5033926;28;20037;-62
2022/10/02 11:49:39;;;;;;;9.55;2.58;;;16.30;99.70;;;;;;5033477;28;20117;-63
2022/10/02 11:52:07;;;;;;;12.48;3.08;;;16.20;99.40;;;;;;5033706;28;20072;-63
2022/10/02 11:54:34;;;;;;;11.48;2.92;;;16.20;99.30;;;;;;5033673;28;20049;-61
2022/10/02 11:57:01;;;;;;;11.48;2.60;;;16.20;99.60;;;;;;5034009;28;20136;-65
2022/10/02 11:59:28;;;;;;;8.57;2.13;;;16.20;98.70;;;;;;5033534;28;20073;-62
2022/10/02 12:01:55;;;;;;;11.75;2.58;;;16.20;98.20;;;;;;5033503;28;20041;-62
2022/10/02 12:04:22;;;;;;;12.85;2.45;;;16.20;98.60;;;;;;5015715;28;20087;-64
2022/10/02 12:06:48;;;;;;;11.65;3.00;;;16.20;98.50;;;;;;5015803;28;20068;-63
2022/10/02 12:09:15;;;;;;;12.65;2.92;;;16.20;97.70;;;;;;5033213;28;20037;-63
2022/10/02 12:11:42;;;;;;;11.48;2.70;;;16.20;97.70;;;;;;5033818;28;20119;-63
2022/10/02 12:14:08;;;;;;;9.35;2.53;;;16.20;96.90;;;;;;5033274;28;20116;-61
2022/10/02 12:16:35;;;;;;;12.07;2.80;;;16.20;97.50;;;;;;5033272;28;20060;-64
2022/10/02 12:19:05;;;;;;;11.35;2.90;;;16.30;97.60;;;;;;5016004;28;20050;-62
2022/10/02 12:27:08;;;;;;;7.97;2.20;;;16.40;96.20;;;;;;5037000;28;20045;-65
2022/10/02 12:29:39;;;;;;;9.15;2.42;;;16.30;96.40;;;;;;5020040;28;20037;-63
2022/10/02 12:32:06;;;;;;;10.23;2.65;;;16.40;95.70;;;;;;5037076;28;20061;-63
2022/10/02 12:34:34;;;;;;;9.95;2.63;;;16.40;96.30;;;;;;5037484;28;20124;-63
2022/10/02 12:37:00;;;;;;;10.57;2.15;;;16.50;95.20;;;;;;5036752;28;20428;-65
2022/10/02 12:39:27;;;;;;;10.35;2.60;;;16.50;94.30;;;;;;5019364;28;20087;-63
2022/10/02 12:41:54;;;;;;;11.15;2.42;;;16.50;94.70;;;;;;5037055;28;20046;-64